Time;durP1;ratioP1;P1;durP2;ratioP2;P2;SDS_P1;SDS_P2;PMS_P1;PMS_P2;Temp;Humidity;BMP_temperature;BMP_pressure;BME280_temperature;BME280_humidity;BME280_pressure;Samples;Min_cycle;Max_cycle;Signal;HPM_P1;HPM_P2
2021/11/14 00:00:52;;;;;;;16.15;12.82;;;;;;;5.86;100.00;98451.66;10446014;28;20474;-61
2021/11/14 00:05:56;;;;;;;16.23;12.38;;;;;;;5.88;100.00;98469.41;10479846;23;20067;-58
2021/11/14 00:11:03;;;;;;;18.70;13.00;;;;;;;5.87;100.00;98468.56;10454238;28;20110;-57
2021/11/14 00:16:10;;;;;;;17.60;12.88;;;;;;;5.88;100.00;98477.44;10458879;28;20052;-57
2021/11/14 00:21:17;;;;;;;20.83;15.25;;;;;;;5.90;100.00;98478.16;10463576;28;20032;-57
2021/11/14 00:26:21;;;;;;;19.90;14.98;;;;;;;5.92;100.00;98477.03;10473193;28;20073;-59
2021/11/14 00:31:25;;;;;;;20.45;15.10;;;;;;;5.91;100.00;98475.34;10454385;28;20068;-56
2021/11/14 00:36:29;;;;;;;21.00;15.40;;;;;;;5.93;100.00;98477.91;10456781;28;20106;-60
2021/11/14 00:41:32;;;;;;;22.48;15.57;;;;;;;5.96;100.00;98481.16;10464954;28;20468;-56
2021/11/14 00:46:39;;;;;;;22.65;16.73;;;;;;;5.98;100.00;98475.66;10476976;28;20052;-57
2021/11/14 00:51:43;;;;;;;23.88;17.10;;;;;;;5.98;100.00;98476.53;10456102;28;20053;-57
2021/11/14 00:56:46;;;;;;;25.30;17.95;;;;;;;5.99;100.00;98478.25;10474174;28;20056;-57
2021/11/14 01:01:51;;;;;;;26.67;18.08;;;;;;;6.03;100.00;98483.31;10454834;28;20041;-52
2021/11/14 01:06:54;;;;;;;25.27;18.38;;;;;;;6.03;100.00;98494.03;10465114;28;20044;-56
2021/11/14 01:11:57;;;;;;;26.67;17.33;;;;;;;6.04;100.00;98491.22;10458721;28;20051;-53
2021/11/14 01:17:01;;;;;;;23.30;16.55;;;;;;;6.04;100.00;98490.38;10449171;28;20803;-53
2021/11/14 01:22:05;;;;;;;23.65;16.65;;;;;;;6.02;100.00;98487.84;10468028;28;20040;-56
2021/11/14 01:27:09;;;;;;;24.52;17.65;;;;;;;6.04;100.00;98493.91;10478556;28;20040;-55
2021/11/14 01:32:13;;;;;;;27.70;19.40;;;;;;;6.05;100.00;98486.72;10470846;28;20028;-54
2021/11/14 01:37:16;;;;;;;26.50;18.95;;;;;;;6.06;100.00;98496.44;10480355;28;20389;-56
2021/11/14 01:42:20;;;;;;;27.92;18.73;;;;;;;6.05;100.00;98495.59;10479424;28;20037;-58
2021/11/14 01:47:24;;;;;;;26.52;17.95;;;;;;;6.08;100.00;98500.69;10461688;28;20055;-53
2021/11/14 01:52:30;;;;;;;24.35;17.45;;;;;;;6.09;100.00;98510.41;10480976;28;20057;-58
2021/11/14 01:57:33;;;;;;;23.95;17.58;;;;;;;6.09;100.00;98509.56;10479231;28;20048;-52
2021/11/14 02:02:38;;;;;;;25.60;17.80;;;;;;;6.08;100.00;98510.53;10473956;28;20047;-52
2021/11/14 02:07:42;;;;;;;24.08;17.08;;;;;;;6.05;100.00;98506.31;10477637;28;20041;-54
2021/11/14 02:12:45;;;;;;;25.95;19.15;;;;;;;5.96;100.00;98517.72;10463472;28;20041;-56
2021/11/14 02:17:49;;;;;;;27.77;20.20;;;;;;;5.95;100.00;98518.69;10467681;28;20467;-53
2021/11/14 02:22:54;;;;;;;30.20;20.80;;;;;;;5.97;100.00;98514.06;10482929;28;20041;-58
2021/11/14 02:27:57;;;;;;;27.60;19.02;;;;;;;5.95;100.00;98518.69;10481419;28;20040;-52
2021/11/14 02:33:01;;;;;;;23.77;17.55;;;;;;;5.95;100.00;98529.41;10476890;28;20036;-58
2021/11/14 02:38:16;;;;;;;20.20;15.77;;;;;;;5.88;100.00;98534.41;10469660;28;20111;-54
2021/11/14 02:43:20;;;;;;;23.10;17.00;;;;;;;5.84;100.00;98528.47;10457477;28;20048;-55
2021/11/14 02:48:24;;;;;;;22.52;17.77;;;;;;;5.79;100.00;98546.75;10481025;28;20052;-59
2021/11/14 02:53:28;;;;;;;22.70;16.30;;;;;;;5.78;100.00;98557.56;10472529;28;20049;-57
2021/11/14 02:58:32;;;;;;;21.38;16.45;;;;;;;5.76;100.00;98562.19;10471215;28;20596;-53
2021/11/14 03:03:36;;;;;;;21.02;15.02;;;;;;;5.75;100.00;98563.19;10481343;28;20040;-57
2021/11/14 03:08:40;;;;;;;18.90;14.98;;;;;;;5.73;100.00;98565.94;10467691;28;20057;-56
2021/11/14 03:13:44;;;;;;;21.45;16.35;;;;;;;5.71;100.00;98558.06;10471839;28;20390;-53
2021/11/14 03:18:47;;;;;;;22.52;16.92;;;;;;;5.72;100.00;98566.94;10471024;28;20052;-53
2021/11/14 03:23:52;;;;;;;22.80;16.30;;;;;;;5.70;100.00;98561.72;10462049;28;20040;-57
2021/11/14 03:28:55;;;;;;;21.75;16.42;;;;;;;5.71;100.00;98575.91;10465605;28;20060;-56
2021/11/14 03:33:58;;;;;;;25.50;18.23;;;;;;;5.71;100.00;98578.59;10466379;28;20041;-53
2021/11/14 03:39:08;;;;;;;24.90;16.80;;;;;;;5.69;100.00;98573.38;10469702;28;20548;-56
2021/11/14 03:44:12;;;;;;;23.63;18.25;;;;;;;5.68;100.00;98590.41;10465260;28;20389;-58
2021/11/14 03:49:15;;;;;;;25.02;17.67;;;;;;;5.70;100.00;98584.94;10460164;28;20052;-59
2021/11/14 03:54:20;;;;;;;26.63;19.38;;;;;;;5.70;100.00;98588.44;10456880;28;20044;-56
2021/11/14 03:59:23;;;;;;;29.80;21.38;;;;;;;5.71;100.00;98592.81;10458145;28;20056;-55
2021/11/14 04:04:26;;;;;;;35.78;23.73;;;;;;;5.75;100.00;98596.09;10460403;28;20492;-58
2021/11/14 04:09:30;;;;;;;34.58;21.88;;;;;;;5.77;100.00;98606.63;10464868;28;20140;-53
2021/11/14 04:14:33;;;;;;;21.23;15.85;;;;;;;5.75;100.00;98605.94;10470919;28;20120;-56
2021/11/14 04:19:36;;;;;;;24.73;18.10;;;;;;;5.70;100.00;98604.50;10456761;28;20076;-56
2021/11/14 04:24:41;;;;;;;24.13;17.85;;;;;;;5.70;100.00;98611.66;10462095;28;20032;-54
2021/11/14 04:29:44;;;;;;;22.00;17.67;;;;;;;5.72;100.00;98623.06;10453604;28;20071;-54
2021/11/14 04:34:49;;;;;;;23.30;17.52;;;;;;;5.72;100.00;98620.38;10472095;28;20045;-51
2021/11/14 04:39:54;;;;;;;24.60;17.48;;;;;;;5.71;100.00;98624.03;10473553;28;20135;-54
2021/11/14 04:44:57;;;;;;;25.88;18.58;;;;;;;5.70;100.00;98630.38;10468933;28;20136;-57
2021/11/14 04:50:00;;;;;;;28.45;20.60;;;;;;;5.70;100.00;98635.72;10472408;28;20116;-52
2021/11/14 04:55:06;;;;;;;31.23;21.55;;;;;;;5.70;100.00;98638.41;10459712;28;20135;-55
2021/11/14 05:00:13;;;;;;;34.38;22.55;;;;;;;5.70;100.00;98635.72;10450023;28;20076;-57
2021/11/14 05:05:16;;;;;;;34.05;23.55;;;;;;;5.71;100.00;98646.28;10473414;28;20139;-55
2021/11/14 05:10:21;;;;;;;34.72;24.10;;;;;;;5.78;100.00;98648.44;10473648;28;20127;-52
2021/11/14 05:15:24;;;;;;;28.85;20.15;;;;;;;5.78;100.00;98654.66;10463947;28;20180;-56
2021/11/14 05:20:27;;;;;;;31.42;20.50;;;;;;;5.79;100.00;98658.16;10460782;28;20080;-53
2021/11/14 05:25:33;;;;;;;37.03;23.45;;;;;;;5.79;100.00;98663.53;10464833;28;20052;-54
2021/11/14 05:30:36;;;;;;;34.22;22.83;;;;;;;5.80;100.00;98673.25;10440607;28;20079;-56
2021/11/14 05:35:39;;;;;;;32.78;22.38;;;;;;;5.80;100.00;98676.78;10461455;28;20102;-58
2021/11/14 05:40:44;;;;;;;38.50;23.98;;;;;;;5.80;100.00;98687.47;10460606;28;20151;-55
2021/11/14 05:45:47;;;;;;;33.22;22.70;;;;;;;5.80;100.00;98697.31;10465523;28;20397;-51
2021/11/14 05:50:50;;;;;;;35.00;23.25;;;;;;;5.81;100.00;98705.22;10462246;28;20140;-56
2021/11/14 05:55:55;;;;;;;35.75;24.50;;;;;;;5.79;100.00;98700.94;10464224;28;20493;-55
2021/11/14 06:01:07;;;;;;;35.72;24.27;;;;;;;5.81;100.00;98701.69;10462609;28;20116;-56
2021/11/14 06:06:11;;;;;;;36.25;24.73;;;;;;;5.80;100.00;98714.22;10453337;23;20082;-86
2021/11/14 06:11:15;;;;;;;36.03;23.90;;;;;;;5.82;100.00;98717.59;10430543;28;20037;-88
2021/11/14 06:16:19;;;;;;;36.28;23.88;;;;;;;5.83;100.00;98731.81;10420913;28;20030;-87
2021/11/14 06:21:27;;;;;;;35.75;24.67;;;;;;;5.84;100.00;98736.19;10416745;28;20050;-87
2021/11/14 06:26:31;;;;;;;36.60;24.15;;;;;;;5.86;100.00;98745.78;10427535;28;20037;-89
2021/11/14 06:31:39;;;;;;;39.28;25.95;;;;;;;5.87;100.00;98749.31;10373369;28;20041;-85
2021/11/14 06:37:09;;;;;;;37.03;26.00;;;;;;;5.88;100.00;98760.88;10369812;28;20077;-85
2021/11/14 06:42:21;;;;;;;37.70;24.92;;;;;;;5.88;100.00;98756.34;10371062;28;20140;-87
2021/11/14 06:47:25;;;;;;;36.55;24.20;;;;;;;5.89;100.00;98775.94;10372725;28;20057;-84
2021/11/14 06:52:30;;;;;;;34.13;24.05;;;;;;;5.93;100.00;98780.06;10369357;28;20069;-84
2021/11/14 06:57:35;;;;;;;35.45;24.73;;;;;;;5.98;100.00;98791.25;10360938;28;20050;-85
2021/11/14 07:02:39;;;;;;;38.75;25.35;;;;;;;6.01;100.00;98791.88;10378774;28;20517;-84
2021/11/14 07:07:43;;;;;;;35.60;24.48;;;;;;;6.05;100.00;98800.53;10389632;28;20486;-87
2021/11/14 07:12:48;;;;;;;34.78;24.15;;;;;;;6.09;100.00;98809.97;10361894;28;20046;-85
2021/11/14 07:17:55;;;;;;;33.45;24.23;;;;;;;6.12;100.00;98817.78;10367839;28;20080;-85
2021/11/14 07:23:02;;;;;;;31.75;23.27;;;;;;;6.16;100.00;98821.91;10368652;28;20611;-84
2021/11/14 07:28:08;;;;;;;31.42;22.38;;;;;;;6.23;100.00;98829.44;10364004;28;20128;-84
2021/11/14 07:33:11;;;;;;;30.67;22.95;;;;;;;6.28;100.00;98845.97;10371735;28;20573;-84
2021/11/14 07:38:14;;;;;;;29.98;22.75;;;;;;;6.32;100.00;98845.59;10377012;28;20042;-86
2021/11/14 07:43:19;;;;;;;31.35;23.48;;;;;;;6.37;100.00;98855.06;10368269;28;20069;-85
2021/11/14 07:48:22;;;;;;;29.20;21.85;;;;;;;6.41;100.00;98854.69;10377300;28;20136;-84
2021/11/14 07:53:25;;;;;;;30.50;22.90;;;;;;;6.47;100.00;98859.56;10347583;28;20046;-86
2021/11/14 07:58:31;;;;;;;30.67;23.13;;;;;;;6.52;100.00;98869.06;10360866;28;20072;-84
2021/11/14 08:03:34;;;;;;;30.98;22.02;;;;;;;6.55;100.00;98868.78;10375618;28;20054;-83
2021/11/14 08:08:37;;;;;;;31.33;22.70;;;;;;;6.59;100.00;98872.94;10382035;28;20073;-85
2021/11/14 08:13:42;;;;;;;30.20;22.73;;;;;;;6.65;100.00;98875.09;10367866;28;20152;-85
2021/11/14 08:18:45;;;;;;;31.65;23.00;;;;;;;6.72;100.00;98891.50;10374011;28;20112;-83
2021/11/14 08:23:48;;;;;;;33.50;23.83;;;;;;;6.75;100.00;98894.81;10369864;28;20046;-86
2021/11/14 08:28:54;;;;;;;31.85;23.17;;;;;;;6.78;100.00;98894.53;10381929;28;20499;-85
2021/11/14 08:33:59;;;;;;;33.58;23.73;;;;;;;6.80;100.00;98889.06;10376389;28;20077;-86
2021/11/14 08:39:04;;;;;;;30.83;23.65;;;;;;;6.84;100.00;98890.50;10360966;28;21124;-84
2021/11/14 08:44:09;;;;;;;29.52;21.50;;;;;;;6.89;100.00;98892.81;10351341;28;20141;-84
2021/11/14 08:49:12;;;;;;;29.70;22.52;;;;;;;6.94;100.00;98895.97;10356451;28;20318;-84
2021/11/14 08:54:15;;;;;;;31.02;23.15;;;;;;;6.99;100.00;98901.81;10367188;28;20951;-85
2021/11/14 08:59:20;;;;;;;29.88;21.95;;;;;;;7.07;100.00;98907.38;10388681;28;20050;-84
2021/11/14 09:04:23;;;;;;;30.67;23.40;;;;;;;7.11;100.00;98918.69;10363282;28;20073;-83
2021/11/14 09:09:27;;;;;;;29.75;22.08;;;;;;;7.19;100.00;98924.25;10367049;28;20058;-81
2021/11/14 09:14:32;;;;;;;28.55;22.33;;;;;;;7.26;100.00;98921.91;10369991;28;20049;-84
2021/11/14 09:19:35;;;;;;;27.48;22.05;;;;;;;7.32;100.00;98931.28;10368793;28;20585;-81
2021/11/14 09:24:39;;;;;;;30.77;21.67;;;;;;;7.38;100.00;98926.25;10350859;28;20056;-87
2021/11/14 09:29:44;;;;;;;29.55;22.42;;;;;;;7.47;100.00;98934.50;10383633;28;20185;-86
2021/11/14 09:34:48;;;;;;;29.00;22.08;;;;;;;7.58;100.00;98936.28;10361240;28;20588;-86
2021/11/14 09:39:51;;;;;;;29.05;21.55;;;;;;;7.64;100.00;98944.66;10380620;28;20046;-85
2021/11/14 09:45:00;;;;;;;30.65;21.80;;;;;;;7.71;100.00;98953.03;10371590;28;20495;-85
2021/11/14 09:50:05;;;;;;;32.40;22.60;;;;;;;7.79;100.00;98950.56;10377026;28;20045;-83
2021/11/14 09:55:10;;;;;;;37.58;23.40;;;;;;;7.82;100.00;98952.16;10373646;28;20100;-85
2021/11/14 10:00:26;;;;;;;40.13;24.10;;;;;;;7.88;100.00;98946.25;10379699;28;20050;-85
2021/11/14 10:05:31;;;;;;;41.47;24.08;;;;;;;7.95;100.00;98947.41;10365537;28;20081;-87
2021/11/14 10:10:45;;;;;;;38.00;23.95;;;;;;;8.04;100.00;98948.44;10361610;28;20046;-85
2021/11/14 10:16:07;;;;;;;35.65;24.20;;;;;;;8.11;100.00;98943.41;10391037;28;20049;-86
2021/11/14 10:21:13;;;;;;;37.67;24.20;;;;;;;8.17;100.00;98942.91;10386562;28;20080;-85
2021/11/14 10:26:30;;;;;;;30.25;21.83;;;;;;;8.18;100.00;98942.75;10321453;28;20441;-84
2021/11/14 10:31:39;;;;;;;27.55;20.70;;;;;;;8.16;100.00;98947.41;10389898;28;20140;-85
2021/11/14 10:36:43;;;;;;;29.08;19.90;;;;;;;8.22;100.00;98945.19;10392346;28;20042;-86
2021/11/14 10:41:49;;;;;;;28.67;21.42;;;;;;;8.27;100.00;98949.16;10394476;28;20050;-85
2021/11/14 10:46:53;;;;;;;27.45;21.05;;;;;;;8.32;100.00;98946.91;10362553;28;20053;-84
2021/11/14 10:51:58;;;;;;;31.65;22.02;;;;;;;8.36;100.00;98957.38;10406578;28;20050;-85
2021/11/14 10:57:02;;;;;;;27.90;20.48;;;;;;;8.36;100.00;98968.13;10383375;28;20041;-85
2021/11/14 11:02:13;;;;;;;29.55;20.45;;;;;;;8.38;100.00;98963.47;10368491;28;20149;-85
2021/11/14 11:07:17;;;;;;;27.63;20.58;;;;;;;8.33;100.00;98974.63;10350715;28;20085;-87
2021/11/14 11:12:34;;;;;;;28.17;20.90;;;;;;;8.36;100.00;98965.44;10330381;28;20081;-83
2021/11/14 11:17:47;;;;;;;30.48;21.40;;;;;;;8.35;100.00;98967.25;10388023;23;20059;-58
2021/11/14 11:22:54;;;;;;;26.85;20.63;;;;;;;8.33;100.00;98967.41;10244551;28;20486;-63
2021/11/14 11:27:57;;;;;;;28.38;20.73;;;;;;;8.33;100.00;98964.72;10243800;28;20035;-56
2021/11/14 11:33:03;;;;;;;30.23;22.38;;;;;;;8.30;100.00;98972.19;10238141;29;20130;-58
2021/11/14 11:38:07;;;;;;;32.97;22.20;;;;;;;8.30;100.00;98973.03;10233882;28;20149;-58
2021/11/14 11:43:11;;;;;;;29.98;22.38;;;;;;;8.31;100.00;98971.22;10239531;29;20027;-59
2021/11/14 11:48:19;;;;;;;31.45;23.98;;;;;;;8.30;100.00;98985.63;10233819;28;20503;-55
2021/11/14 11:53:24;;;;;;;36.53;26.83;;;;;;;8.32;100.00;98989.03;10233886;29;20108;-58
2021/11/14 11:58:38;;;;;;;31.65;24.00;;;;;;;8.29;100.00;98990.13;10236297;28;20050;-57
2021/11/14 12:03:43;;;;;;;29.20;21.77;;;;;;;8.28;100.00;98996.50;10235547;29;20071;-55
2021/11/14 12:08:48;;;;;;;25.60;19.40;;;;;;;8.28;100.00;99009.94;10230631;28;20131;-55
2021/11/14 12:13:52;;;;;;;29.15;22.50;;;;;;;8.28;100.00;99009.06;10234734;29;20075;-56
2021/11/14 12:18:57;;;;;;;32.58;25.42;;;;;;;8.24;100.00;99013.84;10238844;28;20054;-55
2021/11/14 12:24:08;;;;;;;32.47;24.73;;;;;;;8.25;100.00;99004.81;10238555;29;20159;-56
2021/11/14 12:29:23;;;;;;;31.75;22.95;;;;;;;8.23;100.00;99012.13;10233811;28;20054;-55
2021/11/14 12:34:29;;;;;;;30.30;22.73;;;;;;;8.20;100.00;99004.34;10218499;28;20059;-54
2021/11/14 12:39:35;;;;;;;29.13;22.65;;;;;;;8.15;100.00;99007.41;10236391;28;20141;-55
2021/11/14 12:44:42;;;;;;;29.05;21.75;;;;;;;8.15;100.00;99003.91;10237073;29;20036;-57
2021/11/14 12:49:48;;;;;;;29.10;22.38;;;;;;;8.14;100.00;99012.94;10233793;28;20070;-56
2021/11/14 12:54:54;;;;;;;28.27;22.27;;;;;;;8.12;100.00;99004.16;10238830;29;20071;-57
2021/11/14 12:59:58;;;;;;;21.58;16.35;;;;;;;8.09;100.00;98999.03;10236889;29;20122;-55
2021/11/14 13:05:10;;;;;;;29.67;21.48;;;;;;;8.09;100.00;99007.97;10231076;28;20130;-59
2021/11/14 13:10:17;;;;;;;28.45;22.73;;;;;;;8.09;100.00;99009.78;10238294;29;20594;-59
2021/11/14 13:15:21;;;;;;;32.28;24.65;;;;;;;8.08;100.00;99016.13;10236329;28;20693;-60
2021/11/14 13:20:28;;;;;;;33.58;26.05;;;;;;;8.04;100.00;99017.38;10213550;29;20903;-59
2021/11/14 13:25:31;;;;;;;39.83;30.17;;;;;;;8.00;100.00;99019.47;10259765;23;20050;-54
2021/11/14 13:30:42;;;;;;;38.50;28.88;;;;;;;7.94;100.00;99012.78;10336184;28;20053;-53
2021/11/14 13:35:47;;;;;;;39.15;29.60;;;;;;;7.92;100.00;99021.94;10334033;28;20046;-57
2021/11/14 13:40:51;;;;;;;39.03;29.80;;;;;;;7.85;100.00;99021.59;10355533;28;20073;-55
2021/11/14 13:45:58;;;;;;;40.72;30.35;;;;;;;7.84;100.00;99022.59;10340200;28;20045;-54
2021/11/14 13:57:08;;;;;;;38.65;28.00;;;;;;;7.77;100.00;99038.34;10354753;28;20174;-55
2021/11/14 14:02:12;;;;;;;37.58;28.02;;;;;;;7.75;100.00;99036.78;10347977;28;20145;-56
2021/11/14 14:07:16;;;;;;;26.60;20.23;;;;;;;7.69;100.00;99044.38;10349452;28;20553;-56
2021/11/14 14:12:20;;;;;;;23.63;18.50;;;;;;;7.70;100.00;99038.00;10361956;28;20133;-56
2021/11/14 14:17:27;;;;;;;22.50;17.45;;;;;;;7.65;100.00;99037.53;10379046;28;20042;-56
2021/11/14 14:22:36;;;;;;;20.42;15.50;;;;;;;7.62;100.00;99042.31;10396881;28;20460;-55
2021/11/14 14:27:44;;;;;;;23.25;17.98;;;;;;;7.60;100.00;99052.31;10388029;28;20050;-53
2021/11/14 14:32:51;;;;;;;19.92;16.13;;;;;;;7.51;100.00;99057.47;10395991;28;20132;-58
2021/11/14 14:38:04;;;;;;;23.35;16.17;;;;;;;7.51;100.00;99065.50;10377961;28;20050;-55
2021/11/14 14:43:12;;;;;;;27.23;20.60;;;;;;;7.46;100.00;99072.22;10402281;28;20519;-56
2021/11/14 14:48:15;;;;;;;26.73;20.67;;;;;;;7.42;100.00;99082.31;10400649;28;20413;-55
2021/11/14 14:53:26;;;;;;;31.27;23.77;;;;;;;7.37;100.00;99071.97;10400863;28;20099;-55
2021/11/14 15:04:46;;;;;;;36.97;27.55;;;;;;;7.33;100.00;99089.31;10399560;28;20041;-55
2021/11/14 15:09:54;;;;;;;32.88;25.88;;;;;;;7.32;100.00;99098.31;10397165;28;20073;-53
2021/11/14 15:15:00;;;;;;;29.80;23.45;;;;;;;7.29;100.00;99098.56;10399954;28;20666;-54
2021/11/14 15:20:09;;;;;;;28.38;22.10;;;;;;;7.29;100.00;99103.09;10402298;28;20052;-54
2021/11/14 15:25:15;;;;;;;30.08;24.00;;;;;;;7.30;100.00;99108.31;10401276;28;20080;-53
2021/11/14 15:30:22;;;;;;;37.10;26.90;;;;;;;7.31;100.00;99109.16;10399876;28;20132;-58
2021/11/14 15:35:27;;;;;;;32.70;25.70;;;;;;;7.29;100.00;99109.28;10400273;28;20069;-58
2021/11/14 15:40:33;;;;;;;35.97;29.40;;;;;;;7.27;100.00;99115.75;10395012;28;20847;-56
2021/11/14 15:45:38;;;;;;;41.40;32.35;;;;;;;7.24;100.00;99124.88;10400302;28;20061;-54
2021/11/14 15:50:46;;;;;;;48.10;35.67;;;;;;;7.22;100.00;99134.88;10400304;28;20052;-56
2021/11/14 15:55:51;;;;;;;48.20;35.30;;;;;;;7.21;100.00;99139.38;10397604;28;20057;-54
2021/11/14 16:00:59;;;;;;;48.30;34.92;;;;;;;7.20;100.00;99153.75;10400278;28;20045;-55
2021/11/14 16:06:05;;;;;;;51.55;36.45;;;;;;;7.19;100.00;99151.19;10396514;28;20048;-57
2021/11/14 16:11:09;;;;;;;54.80;37.33;;;;;;;7.20;100.00;99153.75;10384511;28;20051;-58
2021/11/14 16:16:12;;;;;;;60.67;39.85;;;;;;;7.20;100.00;99159.09;10397465;28;20496;-56
2021/11/14 16:21:17;;;;;;;61.47;40.20;;;;;;;7.19;100.00;99156.56;10402828;28;20394;-56
2021/11/14 16:26:21;;;;;;;64.70;41.45;;;;;;;7.19;100.00;99161.94;10399685;28;20057;-56
2021/11/14 16:31:24;;;;;;;61.47;41.10;;;;;;;7.15;100.00;99168.50;10402316;28;20045;-54
2021/11/14 16:36:28;;;;;;;53.33;38.40;;;;;;;7.15;100.00;99177.41;10401510;28;20045;-58
2021/11/14 16:41:31;;;;;;;60.47;40.30;;;;;;;7.15;100.00;99193.47;10400946;28;20065;-56
2021/11/14 16:46:35;;;;;;;59.15;41.35;;;;;;;7.14;100.00;99190.91;10380605;28;20148;-54
2021/11/14 16:51:39;;;;;;;54.88;37.45;;;;;;;7.12;100.00;99183.00;10401933;28;20076;-56
2021/11/14 16:56:43;;;;;;;54.72;36.78;;;;;;;7.10;100.00;99184.94;10398987;28;20458;-56
2021/11/14 17:01:46;;;;;;;57.03;38.60;;;;;;;7.11;100.00;99196.53;10398462;28;20148;-57
2021/11/14 17:06:51;;;;;;;57.20;39.03;;;;;;;7.12;100.00;99200.88;10398843;28;20041;-53
2021/11/14 17:11:54;;;;;;;49.20;34.05;;;;;;;7.11;100.00;99201.88;10380522;28;20136;-53
2021/11/14 17:16:58;;;;;;;38.17;28.30;;;;;;;7.11;100.00;99208.06;10396771;28;21189;-54
2021/11/14 17:22:02;;;;;;;48.85;31.80;;;;;;;7.09;100.00;99210.88;10394963;28;20046;-53
2021/11/14 17:27:06;;;;;;;38.75;28.65;;;;;;;7.08;100.00;99209.19;10396009;28;20521;-50
2021/11/14 17:32:09;;;;;;;40.03;28.65;;;;;;;7.07;100.00;99228.91;10397786;28;20100;-51
2021/11/14 17:37:13;;;;;;;42.80;29.75;;;;;;;7.08;100.00;99227.06;10395847;28;20140;-52
2021/11/14 17:42:16;;;;;;;40.08;29.75;;;;;;;7.07;100.00;99233.41;10400182;28;20414;-52
2021/11/14 17:47:20;;;;;;;41.50;31.35;;;;;;;7.07;100.00;99234.25;10396504;28;20105;-51
2021/11/14 17:52:25;;;;;;;47.83;33.28;;;;;;;7.08;100.00;99249.38;10397577;28;20506;-57
2021/11/14 17:57:28;;;;;;;46.35;32.33;;;;;;;7.05;100.00;99235.38;10394903;28;20037;-56
2021/11/14 18:02:32;;;;;;;43.03;29.50;;;;;;;7.03;100.00;99242.66;10401293;28;20119;-54
2021/11/14 18:07:37;;;;;;;34.25;24.63;;;;;;;7.02;100.00;99252.50;10403606;28;20068;-52
2021/11/14 18:12:40;;;;;;;38.70;28.13;;;;;;;7.01;100.00;99249.97;10406082;28;20049;-56
2021/11/14 18:17:44;;;;;;;49.20;33.92;;;;;;;7.00;100.00;99257.13;10407541;28;20117;-53
2021/11/14 18:22:49;;;;;;;46.90;33.35;;;;;;;6.99;100.00;99263.47;10405895;28;20413;-57
2021/11/14 18:27:56;;;;;;;54.38;37.17;;;;;;;6.98;100.00;99264.44;10402813;28;20124;-54
2021/11/14 18:33:00;;;;;;;45.40;33.72;;;;;;;6.96;100.00;99266.38;10406060;28;20045;-57
2021/11/14 18:38:07;;;;;;;46.35;33.35;;;;;;;6.94;100.00;99271.84;10404164;28;20041;-57
2021/11/14 18:43:10;;;;;;;41.42;30.83;;;;;;;6.94;100.00;99268.31;10407544;28;20152;-59
2021/11/14 18:48:13;;;;;;;55.35;41.90;;;;;;;6.93;100.00;99277.31;10405978;28;20077;-55
2021/11/14 18:53:19;;;;;;;48.78;34.33;;;;;;;6.94;100.00;99287.06;10385136;28;20136;-57
2021/11/14 18:58:25;;;;;;;56.88;38.80;;;;;;;6.91;100.00;99289.97;10399903;28;20065;-56
2021/11/14 19:03:29;;;;;;;46.30;32.67;;;;;;;6.90;100.00;99282.91;10407448;28;20073;-54
2021/11/14 19:08:33;;;;;;;58.95;41.15;;;;;;;6.88;100.00;99287.56;10387108;28;20158;-55
2021/11/14 19:13:36;;;;;;;57.22;38.60;;;;;;;6.86;100.00;99289.50;10405948;28;20069;-56
2021/11/14 19:18:39;;;;;;;59.30;38.45;;;;;;;6.85;100.00;99290.47;10398271;28;20038;-58
2021/11/14 19:23:44;;;;;;;51.38;37.05;;;;;;;6.89;100.00;99298.16;10405112;28;20124;-54
2021/11/14 19:28:48;;;;;;;50.28;35.38;;;;;;;6.88;100.00;99299.13;10385931;23;20059;-74
2021/11/14 19:33:54;;;;;;;54.53;37.17;;;;;;;6.89;100.00;99299.94;10386716;28;20051;-73
2021/11/14 19:39:01;;;;;;;54.78;37.72;;;;;;;6.90;100.00;99304.34;10380074;28;20038;-74
2021/11/14 19:44:06;;;;;;;55.40;39.03;;;;;;;6.87;100.00;99308.13;10385662;28;20030;-77
2021/11/14 19:49:09;;;;;;;49.88;35.92;;;;;;;6.88;100.00;99311.66;10352737;28;20492;-75
2021/11/14 19:54:13;;;;;;;63.72;41.90;;;;;;;6.87;100.00;99318.00;10355939;28;20049;-79
2021/11/14 19:59:34;;;;;;;;;;;;;;;6.78;100.00;99315.00;10345255;28;20057;-79
2021/11/14 20:04:38;;;;;;;56.58;36.70;;;;;;;6.78;100.00;99320.38;10365078;28;19925;-74
2021/11/14 20:09:42;;;;;;;52.50;37.38;;;;;;;6.75;100.00;99317.94;10360902;28;20038;-77
2021/11/14 20:14:48;;;;;;;50.45;35.33;;;;;;;6.74;100.00;99318.03;10355636;28;20056;-73
2021/11/14 20:19:51;;;;;;;52.53;34.13;;;;;;;6.71;100.00;99321.81;10395120;28;20112;-74
2021/11/14 20:24:57;;;;;;;66.78;39.78;;;;;;;6.68;100.00;99314.00;10372077;28;20508;-75
2021/11/14 20:30:01;;;;;;;65.50;40.67;;;;;;;6.67;100.00;99322.16;10354943;28;20054;-75
2021/11/14 20:35:05;;;;;;;67.35;40.30;;;;;;;6.61;100.00;99324.31;10367654;28;20104;-75
2021/11/14 20:40:13;;;;;;;66.05;40.00;;;;;;;6.60;100.00;99327.09;10367528;28;20528;-75
2021/11/14 20:45:19;;;;;;;53.05;34.33;;;;;;;6.57;100.00;99324.66;10367031;28;20457;-74
2021/11/14 20:50:24;;;;;;;55.40;36.03;;;;;;;6.54;100.00;99332.91;10367712;28;20113;-75
2021/11/14 20:55:28;;;;;;;60.90;37.47;;;;;;;6.48;100.00;99324.38;10374304;28;20056;-76
2021/11/14 21:00:32;;;;;;;65.00;37.63;;;;;;;6.48;100.00;99327.06;10377932;28;20585;-75
2021/11/14 21:05:35;;;;;;;56.17;35.80;;;;;;;6.47;100.00;99322.66;10349645;28;20056;-75
2021/11/14 21:10:40;;;;;;;59.55;37.92;;;;;;;6.44;100.00;99333.59;10351334;28;20050;-76
2021/11/14 21:15:44;;;;;;;62.05;38.25;;;;;;;6.42;100.00;99340.03;10371343;28;20089;-76
2021/11/14 21:21:04;;;;;;;56.67;36.15;;;;;;;6.36;100.00;99330.63;10379353;28;20124;-76
2021/11/14 21:26:09;;;;;;;52.15;32.03;;;;;;;6.37;100.00;99332.34;10354701;28;21181;-76
2021/11/14 21:31:12;;;;;;;56.38;33.67;;;;;;;6.31;100.00;99330.09;10319348;28;20046;-76
2021/11/14 21:41:38;;;;;;;54.22;31.13;;;;;;;6.24;100.00;99331.50;10322866;28;20125;-76
2021/11/14 21:46:42;;;;;;;70.80;43.10;;;;;;;6.17;100.00;99320.41;10309389;28;20391;-76
2021/11/14 21:51:45;;;;;;;67.07;36.70;;;;;;;6.13;100.00;99314.41;10305633;28;20062;-76
2021/11/14 21:56:49;;;;;;;68.80;39.70;;;;;;;6.04;100.00;99317.75;10312525;28;20104;-76
2021/11/14 22:01:53;;;;;;;77.50;43.13;;;;;;;6.04;100.00;99312.41;10315775;28;20048;-75
2021/11/14 22:06:56;;;;;;;92.15;52.28;;;;;;;6.01;100.00;99326.84;10291823;28;20503;-76
2021/11/14 22:12:01;;;;;;;70.32;34.80;;;;;;;6.00;100.00;99324.28;10325480;28;20070;-76
2021/11/14 22:17:04;;;;;;;72.50;39.80;;;;;;;5.97;100.00;99317.31;10302391;28;20164;-76
2021/11/14 22:22:07;;;;;;;63.60;37.47;;;;;;;5.94;100.00;99320.19;10312921;28;20133;-76
2021/11/14 22:27:12;;;;;;;56.15;30.40;;;;;;;5.88;100.00;99325.13;10350322;28;20129;-76
2021/11/14 22:32:15;;;;;;;55.28;30.92;;;;;;;5.86;100.00;99327.94;10356610;28;20052;-76
2021/11/14 22:37:18;;;;;;;61.53;33.47;;;;;;;5.80;100.00;99323.00;10369547;28;20050;-77
2021/11/14 22:42:23;;;;;;;141.43;81.40;;;;;;;5.82;100.00;99334.44;10395371;28;20045;-76
2021/11/14 22:47:27;;;;;;;99.47;57.95;;;;;;;5.78;100.00;99328.47;10384653;28;20034;-77
2021/11/14 22:52:29;;;;;;;72.05;39.67;;;;;;;5.75;100.00;99339.38;10350228;28;20060;-76
2021/11/14 22:57:34;;;;;;;64.65;33.80;;;;;;;5.75;100.00;99336.69;10365657;28;20338;-76
2021/11/14 23:02:37;;;;;;;64.15;34.75;;;;;;;5.73;100.00;99341.28;10371587;28;20406;-76
2021/11/14 23:07:40;;;;;;;93.78;52.10;;;;;;;5.71;100.00;99340.53;10349574;28;20047;-76
2021/11/14 23:12:45;;;;;;;117.53;58.92;;;;;;;5.69;100.00;99347.84;10347001;28;20065;-76
2021/11/14 23:17:48;;;;;;;78.28;35.83;;;;;;;5.62;100.00;99346.53;10365917;28;20121;-75
2021/11/14 23:22:52;;;;;;;116.10;52.83;;;;;;;5.60;100.00;99343.97;10365156;28;20465;-76